createdAt,value
2022-08-30T00:00:46.961Z,96625.47
2022-08-30T00:03:16.954Z,96623.03
2022-08-30T00:05:45.968Z,96613.59
2022-08-30T00:08:13.999Z,96620.09
2022-08-30T00:10:43.667Z,96619.78
2022-08-30T00:13:13.354Z,96622.25
2022-08-30T00:15:41.869Z,96626.66
2022-08-30T00:18:10.309Z,96619.38
2022-08-30T00:20:39.788Z,96623.13
2022-08-30T00:23:07.663Z,96626.13
2022-08-30T00:25:35.746Z,96619.69
2022-08-30T00:28:03.955Z,96624.63
2022-08-30T00:30:32.102Z,96614.28
2022-08-30T00:33:00.086Z,96620.25
2022-08-30T00:35:27.982Z,96621.31
2022-08-30T00:37:57.069Z,96621.91
2022-08-30T00:40:27.269Z,96618.13
2022-08-30T00:42:59.490Z,96616.25
2022-08-30T00:45:29.428Z,96608.41
2022-08-30T00:47:57.368Z,96617.31
2022-08-30T00:50:34.130Z,96619.22
2022-08-30T00:53:06.827Z,96612.19
2022-08-30T00:55:34.928Z,96612.19
2022-08-30T00:58:09.160Z,96613.47
2022-08-30T01:00:37.490Z,96615.69
2022-08-30T01:03:05.638Z,96617.03
2022-08-30T01:05:33.607Z,96612.16
2022-08-30T01:08:08.359Z,96609.19
2022-08-30T01:10:39.645Z,96613.47
2022-08-30T01:13:07.497Z,96616.19
2022-08-30T01:15:35.801Z,96611.63
2022-08-30T01:18:07.743Z,96612.22
2022-08-30T01:20:39.004Z,96620.59
2022-08-30T01:23:14.125Z,96623.56
2022-08-30T01:25:45.332Z,96615.47
2022-08-30T01:28:17.012Z,96623.56
2022-08-30T01:30:46.014Z,96611.66
2022-08-30T01:33:14.313Z,96610.06
2022-08-30T01:35:48.847Z,96624.66
2022-08-30T01:38:19.461Z,96625.22
2022-08-30T01:40:47.197Z,96623.09
2022-08-30T01:43:15.945Z,96623.06
2022-08-30T01:45:44.084Z,96627.44
2022-08-30T01:48:13.310Z,96629.56
2022-08-30T01:50:41.827Z,96626.06
2022-08-30T01:53:13.142Z,96629.59
2022-08-30T01:55:42.815Z,96624.44
2022-08-30T01:58:11.262Z,96626.38
2022-08-30T02:00:39.405Z,96623.09
2022-08-30T02:03:07.515Z,96621.22
2022-08-30T02:05:35.303Z,96626.63
2022-08-30T02:08:03.526Z,96618.53
2022-08-30T02:10:31.656Z,96618.53
2022-08-30T02:13:00.760Z,96625.53
2022-08-30T02:15:28.869Z,96623.66
2022-08-30T02:17:56.685Z,96620.41
2022-08-30T02:20:24.533Z,96624.50
2022-08-30T02:22:52.273Z,96617.75
2022-08-30T02:25:21.081Z,96607.19
2022-08-30T02:27:49.123Z,96610.38
2022-08-30T02:30:18.501Z,96609.59
2022-08-30T02:32:46.226Z,96610.69
2022-08-30T02:35:13.999Z,96610.69
2022-08-30T02:37:41.753Z,96609.59
2022-08-30T02:40:11.073Z,96614.75
2022-08-30T02:42:39.099Z,96614.72
2022-08-30T02:45:07.746Z,96614.44
2022-08-30T02:47:37.535Z,96609.84
2022-08-30T02:50:06.894Z,96607.97
2022-08-30T02:52:34.646Z,96606.06
2022-08-30T02:55:02.464Z,96603.09
2022-08-30T02:57:30.206Z,96604.19
2022-08-30T02:59:58.654Z,96598.53
2022-08-30T03:02:27.232Z,96599.84
2022-08-30T03:04:57.501Z,96602.53
2022-08-30T03:07:25.278Z,96596.34
2022-08-30T03:09:53.288Z,96589.31
2022-08-30T03:12:21.086Z,96590.66
2022-08-30T03:14:49.215Z,96583.09
2022-08-30T03:17:17.430Z,96592.78
2022-08-30T03:19:46.093Z,96592.00
2022-08-30T03:22:15.211Z,96586.84
2022-08-30T03:24:43.093Z,96589.56
2022-08-30T03:27:10.835Z,96590.38
2022-08-30T03:29:39.340Z,96589.56
2022-08-30T03:32:07.480Z,96585.25
2022-08-30T03:34:35.801Z,96583.31
2022-08-30T03:37:03.694Z,96587.34
2022-08-30T03:39:32.807Z,96579.31
2022-08-30T03:42:00.715Z,96582.53
2022-08-30T03:44:30.407Z,96587.06
2022-08-30T03:46:58.166Z,96583.56
2022-08-30T03:49:26.027Z,96589.44
2022-08-30T03:51:53.794Z,96592.69
2022-08-30T03:54:23.440Z,96589.53
2022-08-30T03:56:54.020Z,96589.78
2022-08-30T03:59:21.756Z,96591.69
2022-08-30T04:01:49.595Z,96589.19
2022-08-30T04:04:20.966Z,96589.72
2022-08-30T04:06:49.666Z,96585.09
2022-08-30T04:09:18.154Z,96595.09
2022-08-30T04:11:45.905Z,96596.44
2022-08-30T04:14:15.183Z,96597.50
2022-08-30T04:16:43.064Z,96595.09
2022-08-30T04:19:10.961Z,96595.38
2022-08-30T04:21:42.850Z,96552.38
2022-08-30T04:24:11.236Z,96602.47
2022-08-30T04:26:39.066Z,96598.41
2022-08-30T04:29:07.105Z,96599.19
2022-08-30T04:31:36.322Z,96609.72
2022-08-30T04:34:04.677Z,96605.09
2022-08-30T04:36:32.473Z,96589.22
2022-08-30T04:39:00.194Z,96598.09
2022-08-30T04:41:27.975Z,96600.78
2022-08-30T04:43:55.726Z,96602.72
2022-08-30T04:46:23.457Z,96617.50
2022-08-30T04:48:52.715Z,96620.47
2022-08-30T04:51:20.482Z,96622.44
2022-08-30T04:53:50.703Z,96640.28
2022-08-30T04:56:22.392Z,96634.88
2022-08-30T04:58:53.128Z,96631.63
2022-08-30T05:01:24.000Z,96646.00
2022-08-30T05:03:55.171Z,96635.50
2022-08-30T05:06:23.701Z,96636.84
2022-08-30T05:08:51.855Z,96640.03
2022-08-30T05:11:19.983Z,96645.72
2022-08-30T05:13:47.929Z,96650.06
2022-08-30T05:16:17.891Z,96665.44
2022-08-30T05:18:46.290Z,96664.34
2022-08-30T05:21:17.575Z,96667.38
2022-08-30T05:23:46.550Z,96673.91
2022-08-30T05:26:17.102Z,96673.91
2022-08-30T05:28:45.509Z,96670.91
2022-08-30T05:31:16.587Z,96671.19
2022-08-30T05:33:45.041Z,96673.41
2022-08-30T05:36:15.719Z,96670.16
2022-08-30T05:38:44.346Z,96673.94
2022-08-30T05:41:12.746Z,96672.34
2022-08-30T05:43:40.850Z,96673.69
2022-08-30T05:46:10.389Z,96673.13
2022-08-30T05:48:38.688Z,96659.88
2022-08-30T05:51:08.753Z,96665.59
2022-08-30T05:53:37.913Z,96670.44
2022-08-30T05:56:07.666Z,96667.72
2022-08-30T05:58:36.327Z,96659.84
2022-08-30T06:01:05.246Z,96657.13
2022-08-30T06:03:33.757Z,96660.81
2022-08-30T06:06:02.900Z,96652.41
2022-08-30T06:08:30.715Z,96656.53
2022-08-30T06:10:59.819Z,96655.25
2022-08-30T06:13:27.641Z,96655.50
2022-08-30T06:15:55.435Z,96655.78
2022-08-30T06:18:28.754Z,96658.84
2022-08-30T06:20:56.751Z,96663.16
2022-08-30T06:23:24.688Z,96650.69
2022-08-30T06:25:52.523Z,96655.25
2022-08-30T06:28:21.724Z,96665.41
2022-08-30T06:30:49.514Z,96656.75
2022-08-30T06:33:17.380Z,96664.44
2022-08-30T06:35:58.137Z,96661.66
2022-08-30T06:38:27.641Z,96660.16
2022-08-30T06:40:55.409Z,96661.88
2022-08-30T06:43:24.691Z,96661.22
2022-08-30T06:45:52.870Z,96651.06
2022-08-30T06:48:20.629Z,96650.97
2022-08-30T06:50:54.782Z,96655.94
2022-08-30T06:53:23.108Z,96649.69
2022-08-30T06:55:57.733Z,96648.34
2022-08-30T06:58:27.223Z,96641.97
2022-08-30T07:00:55.221Z,96646.00
2022-08-30T07:03:23.424Z,96652.78
2022-08-30T07:05:51.485Z,96643.75
2022-08-30T07:08:19.277Z,96646.59
2022-08-30T07:10:47.446Z,96654.19
2022-08-30T07:13:15.182Z,96613.00
2022-08-30T07:15:45.769Z,96636.75
2022-08-30T07:18:32.200Z,96642.56
2022-08-30T07:21:06.214Z,96641.53
2022-08-30T07:23:33.913Z,96639.50
2022-08-30T07:26:05.259Z,96638.78
2022-08-30T07:28:33.561Z,96632.38
2022-08-30T07:31:02.955Z,96629.03
2022-08-30T07:33:31.231Z,96624.44
2022-08-30T07:35:59.380Z,96631.03
2022-08-30T07:38:30.299Z,96627.22
2022-08-30T07:41:01.146Z,96629.28
2022-08-30T07:43:29.241Z,96626.38
2022-08-30T07:45:58.209Z,96626.63
2022-08-30T07:48:27.460Z,96626.72
2022-08-30T07:50:58.990Z,96632.41
2022-08-30T07:53:28.963Z,96627.75
2022-08-30T07:55:56.773Z,96622.50
2022-08-30T07:58:24.533Z,96623.84
2022-08-30T08:00:52.576Z,96617.75
2022-08-30T08:03:20.355Z,96613.34
2022-08-30T08:05:49.473Z,96623.19
2022-08-30T08:08:17.402Z,96628.47
2022-08-30T08:10:45.296Z,96629.31
2022-08-30T08:13:13.278Z,96627.53
2022-08-30T08:15:41.676Z,96621.34
2022-08-30T08:18:09.868Z,96633.13
2022-08-30T08:20:38.675Z,96633.84
2022-08-30T08:23:08.825Z,96630.84
2022-08-30T08:25:40.130Z,96628.16
2022-08-30T08:28:09.651Z,96626.53
2022-08-30T08:30:38.741Z,96625.47
2022-08-30T08:33:07.220Z,96630.44
2022-08-30T08:35:35.392Z,96626.41
2022-08-30T08:38:03.356Z,96631.06
2022-08-30T08:40:41.942Z,96621.66
2022-08-30T08:43:14.344Z,96618.59
2022-08-30T08:45:55.552Z,96620.28
2022-08-30T08:48:51.972Z,96621.63
2022-08-30T08:51:41.514Z,96626.44
2022-08-30T08:54:12.764Z,96618.03
2022-08-30T08:56:42.027Z,96607.81
2022-08-30T08:59:12.577Z,96610.38
2022-08-30T09:01:40.509Z,96606.03
2022-08-30T09:04:13.487Z,96612.69
2022-08-30T09:06:53.647Z,96612.88
2022-08-30T09:09:28.865Z,96618.34
2022-08-30T09:11:58.062Z,96619.81
2022-08-30T09:14:30.765Z,96627.91
2022-08-30T09:17:02.834Z,96625.81
2022-08-30T09:19:41.336Z,96626.47
2022-08-30T09:22:26.446Z,96617.94
2022-08-30T09:24:56.805Z,96618.28
2022-08-30T09:27:30.572Z,96620.41
2022-08-30T09:30:05.870Z,96616.81
2022-08-30T09:32:38.684Z,96613.47
2022-08-30T09:35:11.785Z,96607.16
2022-08-30T09:37:46.960Z,96605.72
2022-08-30T09:40:22.377Z,96602.53
2022-08-30T09:43:04.035Z,96602.44
2022-08-30T09:45:36.005Z,96605.78
2022-08-30T09:48:23.431Z,96601.69
2022-08-30T09:51:03.065Z,96601.78
2022-08-30T09:53:36.110Z,96599.84
2022-08-30T09:56:10.096Z,96584.75
2022-08-30T09:58:54.055Z,96588.72
2022-08-30T10:01:29.449Z,96599.13
2022-08-30T10:04:07.485Z,96599.94
2022-08-30T10:06:42.838Z,96596.22
2022-08-30T10:09:23.957Z,96598.03
2022-08-30T10:11:57.801Z,96592.81
2022-08-30T10:14:59.100Z,96589.94
2022-08-30T10:17:43.447Z,96590.44
2022-08-30T10:20:20.367Z,96588.06
2022-08-30T10:22:52.230Z,96585.13
2022-08-30T10:25:26.544Z,96581.88
2022-08-30T10:27:59.741Z,96570.06
2022-08-30T10:30:31.724Z,96575.38
2022-08-30T10:33:06.997Z,96554.81
2022-08-30T10:35:41.126Z,96569.81
2022-08-30T10:38:19.449Z,96569.09
2022-08-30T10:41:09.195Z,96572.91
2022-08-30T10:43:50.866Z,96556.78
2022-08-30T10:46:27.621Z,96570.06
2022-08-30T10:48:57.311Z,96564.94
2022-08-30T10:51:33.187Z,96556.84
2022-08-30T10:54:09.298Z,96568.06
2022-08-30T10:56:42.365Z,96562.66
2022-08-30T10:59:11.990Z,96558.56
2022-08-30T11:02:03.298Z,96542.94
2022-08-30T11:05:03.768Z,96561.53
2022-08-30T11:07:43.552Z,96569.75
2022-08-30T11:10:26.955Z,96565.44
2022-08-30T11:13:00.656Z,96547.41
2022-08-30T11:15:31.698Z,96556.66
2022-08-30T11:18:04.523Z,96558.50
2022-08-30T11:20:37.595Z,96555.75
2022-08-30T11:23:23.191Z,96532.06
2022-08-30T11:25:57.974Z,96541.63
2022-08-30T11:29:03.403Z,96548.28
2022-08-30T11:31:37.881Z,96549.03
2022-08-30T11:34:07.954Z,96538.34
2022-08-30T11:37:09.422Z,96541.09
2022-08-30T11:40:04.021Z,96544.94
2022-08-30T11:45:55.672Z,96542.72
2022-08-30T11:48:54.078Z,96535.81
2022-08-30T11:55:06.940Z,96530.63
2022-08-30T11:57:45.433Z,96528.25
2022-08-30T12:00:29.946Z,96512.38
2022-08-30T12:03:02.282Z,96523.88
2022-08-30T12:05:59.555Z,96528.16
2022-08-30T12:09:02.195Z,96517.66
2022-08-30T12:12:03.067Z,96526.75
2022-08-30T12:14:48.773Z,96518.78
2022-08-30T12:17:48.429Z,96509.66
2022-08-30T12:20:28.426Z,96514.94
2022-08-30T12:22:57.600Z,96506.13
2022-08-30T12:25:30.441Z,96500.78
2022-08-30T12:28:16.406Z,96499.84
2022-08-30T12:30:46.667Z,96498.50
2022-08-30T12:33:24.054Z,96490.66
2022-08-30T12:35:59.364Z,96490.91
2022-08-30T12:38:28.320Z,96483.41
2022-08-30T12:40:59.453Z,96491.94
2022-08-30T12:43:33.484Z,96482.06
2022-08-30T12:46:12.672Z,96479.63
2022-08-30T12:48:44.432Z,96469.34
2022-08-30T12:51:28.506Z,96460.59
2022-08-30T12:54:06.473Z,96468.06
2022-08-30T12:57:13.932Z,96462.25
2022-08-30T12:59:59.315Z,96466.06
2022-08-30T13:02:29.930Z,96448.50
2022-08-30T13:04:58.552Z,96462.34
2022-08-30T13:07:35.471Z,96463.53
2022-08-30T13:10:19.448Z,96445.38
2022-08-30T13:13:01.962Z,96455.78
2022-08-30T13:15:33.671Z,96452.38
2022-08-30T13:18:22.237Z,96449.41
2022-08-30T13:21:11.249Z,96442.78
2022-08-30T13:23:40.472Z,96441.38
2022-08-30T13:26:09.258Z,96439.81
2022-08-30T13:28:48.963Z,96433.81
2022-08-30T13:31:18.215Z,96422.88
2022-08-30T13:33:46.708Z,96412.31
2022-08-30T13:36:15.724Z,96416.47
2022-08-30T13:38:43.656Z,96416.19
2022-08-30T13:41:11.779Z,96405.63
2022-08-30T13:46:28.852Z,96389.19
2022-08-30T13:49:01.622Z,96392.97
2022-08-30T13:51:29.656Z,96385.72
2022-08-30T13:53:58.813Z,96392.38
2022-08-30T13:56:27.775Z,96377.28
2022-08-30T13:58:59.461Z,96388.28
2022-08-30T14:01:29.342Z,96383.00
2022-08-30T14:09:33.089Z,96381.31
2022-08-30T14:12:01.110Z,96379.94
2022-08-30T14:14:42.693Z,96387.56
2022-08-30T14:17:13.001Z,96383.09
2022-08-30T14:19:41.413Z,96380.56
2022-08-30T14:22:09.555Z,96374.75
2022-08-30T14:24:38.440Z,96383.13
2022-08-30T14:27:06.826Z,96374.38
2022-08-30T14:29:34.714Z,96378.84
2022-08-30T14:32:03.585Z,96389.19
2022-08-30T14:34:32.852Z,96389.63
2022-08-30T14:37:00.604Z,96382.44
2022-08-30T14:39:28.639Z,96383.91
2022-08-30T14:41:57.069Z,96373.66
2022-08-30T14:44:26.272Z,96381.63
2022-08-30T14:46:55.293Z,96373.75
2022-08-30T14:49:24.122Z,96371.47
2022-08-30T14:51:53.663Z,96376.06
2022-08-30T14:54:25.483Z,96373.09
2022-08-30T14:56:54.378Z,96368.81
2022-08-30T14:59:22.906Z,96367.31
2022-08-30T15:01:50.722Z,96355.97
2022-08-30T15:04:18.521Z,96359.56
2022-08-30T15:06:50.707Z,96351.69
2022-08-30T15:09:23.193Z,96347.66
2022-08-30T15:11:52.378Z,96343.16
2022-08-30T15:14:20.517Z,96321.47
2022-08-30T15:16:48.361Z,96343.91
2022-08-30T15:19:16.610Z,96342.00
2022-08-30T15:21:46.695Z,96342.66
2022-08-30T15:24:20.207Z,96338.13
2022-08-30T15:26:57.809Z,96343.44
2022-08-30T15:29:31.485Z,96336.41
2022-08-30T15:32:01.418Z,96332.47
2022-08-30T15:34:29.844Z,96335.22
2022-08-30T15:36:58.418Z,96336.16
2022-08-30T15:39:27.875Z,96330.19
2022-08-30T15:42:00.788Z,96337.00
2022-08-30T15:44:29.803Z,96323.50
2022-08-30T15:46:57.655Z,96331.31
2022-08-30T15:49:25.836Z,96319.88
2022-08-30T15:51:54.659Z,96311.47
2022-08-30T15:54:24.699Z,96316.56
2022-08-30T15:56:59.408Z,96310.97
2022-08-30T15:59:28.252Z,96311.88
2022-08-30T16:01:57.373Z,96301.88
2022-08-30T16:04:25.643Z,96297.72
2022-08-30T16:06:53.543Z,96299.50
2022-08-30T16:09:22.199Z,96300.53
2022-08-30T16:11:50.428Z,96298.72
2022-08-30T16:14:19.852Z,96302.06
2022-08-30T16:16:47.721Z,96318.22
2022-08-30T16:19:15.852Z,96325.78
2022-08-30T16:21:44.115Z,96327.97
2022-08-30T16:24:13.460Z,96331.16
2022-08-30T16:26:43.593Z,96328.47
2022-08-30T16:29:13.473Z,96333.75
2022-08-30T16:31:44.772Z,96335.81
2022-08-30T16:34:13.897Z,96330.44
2022-08-30T16:36:42.932Z,96325.06
2022-08-30T16:39:12.765Z,96323.25
2022-08-30T16:41:41.349Z,96320.69
2022-08-30T16:44:10.235Z,96332.31
2022-08-30T16:46:41.403Z,96327.59
2022-08-30T16:49:10.726Z,96321.53
2022-08-30T16:51:39.102Z,96326.28
2022-08-30T16:54:08.317Z,96325.00
2022-08-30T16:56:38.541Z,96328.19
2022-08-30T16:59:11.154Z,96325.34
2022-08-30T17:01:41.103Z,96327.72
2022-08-30T17:04:13.815Z,96329.00
2022-08-30T17:06:43.721Z,96331.16
2022-08-30T17:09:11.547Z,96349.66
2022-08-30T17:11:40.489Z,96343.06
2022-08-30T17:14:08.786Z,96347.25
2022-08-30T17:16:38.396Z,96347.25
2022-08-30T17:19:08.179Z,96354.16
2022-08-30T17:21:37.295Z,96353.50
2022-08-30T17:24:07.319Z,96351.59
2022-08-30T17:26:37.153Z,96365.88
2022-08-30T17:29:06.172Z,96354.56
2022-08-30T17:34:24.871Z,96378.66
2022-08-30T17:36:58.186Z,96376.19
2022-08-30T17:39:27.406Z,96380.00
2022-08-30T17:41:56.293Z,96382.09
2022-08-30T17:44:28.949Z,96392.69
2022-08-30T17:46:59.663Z,96393.66
2022-08-30T17:49:28.808Z,96393.75
2022-08-30T17:51:59.081Z,96400.84
2022-08-30T17:54:28.412Z,96417.34
2022-08-30T17:56:57.457Z,96441.56
2022-08-30T17:59:31.527Z,96447.41
2022-08-30T18:02:00.919Z,96462.66
2022-08-30T18:04:29.788Z,96452.34
2022-08-30T18:06:59.853Z,96454.88
2022-08-30T18:09:31.811Z,96460.78
2022-08-30T18:12:01.697Z,96461.81
2022-08-30T18:14:29.513Z,96453.59
2022-08-30T18:16:57.286Z,96465.56
2022-08-30T18:19:25.600Z,96455.19
2022-08-30T18:21:54.094Z,96474.38
2022-08-30T18:24:23.962Z,96462.97
2022-08-30T18:26:54.588Z,96463.38
2022-08-30T18:29:29.460Z,96467.72
2022-08-30T18:31:59.566Z,96463.50
2022-08-30T18:34:27.956Z,96458.47
2022-08-30T18:36:56.271Z,96455.66
2022-08-30T18:39:26.157Z,96458.69
2022-08-30T18:41:54.791Z,96462.53
2022-08-30T18:44:29.188Z,96452.50
2022-08-30T18:47:00.209Z,96472.06
2022-08-30T18:49:28.649Z,96460.16
2022-08-30T18:51:56.633Z,96474.31
2022-08-30T18:54:25.771Z,96471.88
2022-08-30T18:56:53.783Z,96480.88
2022-08-30T18:59:23.006Z,96484.38
2022-08-30T19:02:03.624Z,96490.53
2022-08-30T19:04:35.012Z,96480.63
2022-08-30T19:07:05.624Z,96498.19
2022-08-30T19:09:35.257Z,96500.06
2022-08-30T19:12:03.305Z,96516.06
2022-08-30T19:14:35.774Z,96520.03
2022-08-30T19:17:06.847Z,96526.84
2022-08-30T19:19:36.170Z,96527.34
2022-08-30T19:22:16.444Z,96504.41
2022-08-30T19:24:45.681Z,96528.91
2022-08-30T19:27:13.540Z,96531.81
2022-08-30T19:29:41.336Z,96544.34
2022-08-30T19:32:12.372Z,96558.88
2022-08-30T19:34:42.106Z,96563.81
2022-08-30T19:37:10.131Z,96573.38
2022-08-30T19:39:43.095Z,96594.66
2022-08-30T19:42:15.898Z,96607.25
2022-08-30T19:44:44.371Z,96618.72
2022-08-30T19:47:12.191Z,96613.50
2022-08-30T19:49:40.129Z,96623.41
2022-08-30T19:52:07.879Z,96619.38
2022-08-30T19:54:35.661Z,96622.38
2022-08-30T19:57:03.381Z,96614.06
2022-08-30T19:59:32.617Z,96631.03
2022-08-30T20:02:07.515Z,96631.75
2022-08-30T20:04:35.429Z,96634.84
2022-08-30T20:07:03.516Z,96639.22
2022-08-30T20:09:31.361Z,96641.84
2022-08-30T20:11:59.453Z,96636.94
2022-08-30T20:14:27.183Z,96643.66
2022-08-30T20:16:56.382Z,96630.72
2022-08-30T20:19:27.439Z,96647.34
2022-08-30T20:24:24.989Z,96380.66
2022-08-30T20:24:44.327Z,96658.72
2022-08-30T20:27:12.497Z,96655.44
2022-08-30T20:29:41.934Z,96666.47
2022-08-30T20:32:11.099Z,96635.00
2022-08-30T20:34:39.624Z,96655.56
2022-08-30T20:37:09.721Z,96647.94
2022-08-30T20:39:39.272Z,96651.66
2022-08-30T20:42:07.671Z,96647.00
2022-08-30T20:44:35.564Z,96635.25
2022-08-30T20:47:03.698Z,96641.31
2022-08-30T20:49:32.929Z,96637.06
2022-08-30T20:52:01.037Z,96628.03
2022-08-30T20:54:32.545Z,96633.19
2022-08-30T20:57:00.318Z,96633.81
2022-08-30T20:59:28.681Z,96637.31
2022-08-30T21:01:58.171Z,96638.91
2022-08-30T21:04:27.045Z,96641.25
2022-08-30T21:06:56.158Z,96627.56
2022-08-30T21:09:23.922Z,96629.44
2022-08-30T21:11:51.814Z,96626.53
2022-08-30T21:14:21.827Z,96601.78
2022-08-30T21:16:49.801Z,96615.09
2022-08-30T21:19:17.927Z,96601.72
2022-08-30T21:21:45.931Z,96598.13
2022-08-30T21:24:15.064Z,96594.66
2022-08-30T21:26:43.516Z,96575.25
2022-08-30T21:29:11.937Z,96593.97
2022-08-30T21:31:39.768Z,96597.16
2022-08-30T21:34:08.515Z,96605.09
2022-08-30T21:36:47.066Z,96606.75
2022-08-30T21:39:20.198Z,96605.22
2022-08-30T21:41:48.541Z,96613.88
2022-08-30T21:44:18.705Z,96601.31
2022-08-30T21:46:47.988Z,96599.44
2022-08-30T21:49:19.241Z,96596.72
2022-08-30T21:51:48.939Z,96597.22
2022-08-30T21:54:18.876Z,96599.59
2022-08-30T21:56:50.904Z,96600.75
2022-08-30T21:59:19.472Z,96594.69
2022-08-30T22:01:48.203Z,96607.41
2022-08-30T22:04:16.501Z,96607.94
2022-08-30T22:06:48.047Z,96607.56
2022-08-30T22:09:17.093Z,96605.16
2022-08-30T22:11:46.717Z,96594.94
2022-08-30T22:14:16.060Z,96601.56
2022-08-30T22:16:46.328Z,96596.31
2022-08-30T22:19:14.250Z,96592.22
2022-08-30T22:21:44.723Z,96593.31
2022-08-30T22:24:13.125Z,96580.69
2022-08-30T22:26:41.460Z,96590.44
2022-08-30T22:29:10.875Z,96593.66
2022-08-30T22:31:41.657Z,96590.44
2022-08-30T22:34:10.456Z,96600.78
2022-08-30T22:36:39.264Z,96597.03
2022-08-30T22:39:09.896Z,96603.75
2022-08-30T22:41:38.609Z,96603.53
2022-08-30T22:44:06.707Z,96592.75
2022-08-30T22:46:37.160Z,96600.63
2022-08-30T22:49:06.775Z,96594.44
2022-08-30T22:51:35.755Z,96590.34
2022-08-30T22:54:05.571Z,96600.84
2022-08-30T22:56:35.016Z,96596.53
2022-08-30T22:59:03.458Z,96603.50
2022-08-30T23:01:42.451Z,96592.16
2022-08-30T23:04:11.326Z,96587.50
2022-08-30T23:06:39.121Z,96587.47
2022-08-30T23:09:07.837Z,96589.28
2022-08-30T23:11:37.751Z,96582.78
2022-08-30T23:14:06.872Z,96587.72
2022-08-30T23:16:36.565Z,96580.94
2022-08-30T23:19:05.562Z,96586.38
2022-08-30T23:21:33.296Z,96596.91
2022-08-30T23:24:18.267Z,96586.13
2022-08-30T23:27:04.291Z,96588.16
2022-08-30T23:29:49.570Z,96586.03
2022-08-30T23:32:36.676Z,96584.97
2022-08-30T23:35:29.123Z,96586.09
2022-08-30T23:38:15.390Z,96591.13
2022-08-30T23:41:01.200Z,96586.00
2022-08-30T23:43:46.538Z,96590.84
2022-08-30T23:46:33.988Z,96591.50
2022-08-30T23:49:20.501Z,96589.41
2022-08-30T23:52:05.964Z,96590.94
2022-08-30T23:54:51.780Z,96585.31
2022-08-30T23:57:42.570Z,96583.47
